sensor_id;sensor_type;location;lat;lon;timestamp;pressure;altitude;pressure_sealevel;temperature;humidity
71974;BME280;59840;52.122;5.404;2023-07-13T00:00:38;101458.56;;;16.86;82.70
71974;BME280;59840;52.122;5.404;2023-07-13T00:03:07;101456.19;;;16.74;84.20
71974;BME280;59840;52.122;5.404;2023-07-13T00:05:37;101462.56;;;16.73;84.52
71974;BME280;59840;52.122;5.404;2023-07-13T00:08:08;101454.59;;;16.68;83.84
71974;BME280;59840;52.122;5.404;2023-07-13T00:10:40;101456.19;;;16.69;84.67
71974;BME280;59840;52.122;5.404;2023-07-13T00:13:12;101456.44;;;16.68;84.89
71974;BME280;59840;52.122;5.404;2023-07-13T00:15:38;101456.97;;;16.65;85.06
71974;BME280;59840;52.122;5.404;2023-07-13T00:18:05;101456.72;;;16.61;85.30
71974;BME280;59840;52.122;5.404;2023-07-13T00:20:41;101466.84;;;16.59;84.95
71974;BME280;59840;52.122;5.404;2023-07-13T00:23:11;101454.06;;;16.56;84.79
71974;BME280;59840;52.122;5.404;2023-07-13T00:25:40;101454.06;;;16.46;85.36
71974;BME280;59840;52.122;5.404;2023-07-13T00:28:07;101464.47;;;16.42;84.81
71974;BME280;59840;52.122;5.404;2023-07-13T00:30:37;101462.31;;;16.45;85.56
71974;BME280;59840;52.122;5.404;2023-07-13T00:33:04;101457.00;;;16.45;85.15
71974;BME280;59840;52.122;5.404;2023-07-13T00:35:46;101459.66;;;16.45;84.49
71974;BME280;59840;52.122;5.404;2023-07-13T00:38:15;101463.13;;;16.40;85.12
71974;BME280;59840;52.122;5.404;2023-07-13T00:40:43;101461.00;;;16.37;84.72
71974;BME280;59840;52.122;5.404;2023-07-13T00:43:15;101458.88;;;16.39;84.84
71974;BME280;59840;52.122;5.404;2023-07-13T00:48:24;101453.28;;;16.25;85.49
71974;BME280;59840;52.122;5.404;2023-07-13T00:50:57;101466.88;;;16.24;85.32
71974;BME280;59840;52.122;5.404;2023-07-13T00:53:26;101463.16;;;16.25;84.84
71974;BME280;59840;52.122;5.404;2023-07-13T00:55:55;101463.16;;;16.25;85.31
71974;BME280;59840;52.122;5.404;2023-07-13T00:58:25;101463.13;;;16.15;85.61
71974;BME280;59840;52.122;5.404;2023-07-13T01:00:52;101463.66;;;16.12;86.21
71974;BME280;59840;52.122;5.404;2023-07-13T01:03:20;101461.00;;;16.12;85.70
71974;BME280;59840;52.122;5.404;2023-07-13T01:05:48;101468.47;;;16.15;86.05
71974;BME280;59840;52.122;5.404;2023-07-13T01:08:21;101455.16;;;16.09;86.01
71974;BME280;59840;52.122;5.404;2023-07-13T01:10:55;101459.13;;;16.07;86.09
71974;BME280;59840;52.122;5.404;2023-07-13T01:13:27;101461.00;;;16.01;86.16
71974;BME280;59840;52.122;5.404;2023-07-13T01:15:56;101474.03;;;15.93;86.64
71974;BME280;59840;52.122;5.404;2023-07-13T01:18:27;101470.59;;;15.92;86.98
71974;BME280;59840;52.122;5.404;2023-07-13T01:20:57;101475.66;;;15.94;87.24
71974;BME280;59840;52.122;5.404;2023-07-13T01:23:25;101475.63;;;15.89;87.29
71974;BME280;59840;52.122;5.404;2023-07-13T01:25:53;101477.75;;;15.87;87.39
71974;BME280;59840;52.122;5.404;2023-07-13T01:28:24;101480.69;;;15.85;87.93
71974;BME280;59840;52.122;5.404;2023-07-13T01:30:55;101477.47;;;15.83;87.46
71974;BME280;59840;52.122;5.404;2023-07-13T01:33:22;101475.34;;;15.85;87.48
71974;BME280;59840;52.122;5.404;2023-07-13T01:35:49;101472.16;;;15.78;87.94
71974;BME280;59840;52.122;5.404;2023-07-13T01:38:21;101479.28;;;15.67;88.00
71974;BME280;59840;52.122;5.404;2023-07-13T01:40:52;101481.94;;;15.62;88.82
71974;BME280;59840;52.122;5.404;2023-07-13T01:43:21;101475.00;;;15.61;88.96
71974;BME280;59840;52.122;5.404;2023-07-13T01:45:50;101474.22;;;15.61;89.23
71974;BME280;59840;52.122;5.404;2023-07-13T01:48:17;101459.88;;;15.57;88.73
71974;BME280;59840;52.122;5.404;2023-07-13T01:50:44;101476.84;;;15.56;88.72
71974;BME280;59840;52.122;5.404;2023-07-13T01:53:13;101478.94;;;15.49;88.53
71974;BME280;59840;52.122;5.404;2023-07-13T01:55:39;101478.94;;;15.43;89.17
71974;BME280;59840;52.122;5.404;2023-07-13T01:58:09;101481.81;;;15.37;89.22
71974;BME280;59840;52.122;5.404;2023-07-13T02:00:36;101477.03;;;15.34;89.44
71974;BME280;59840;52.122;5.404;2023-07-13T02:03:05;101481.25;;;15.20;90.35
71974;BME280;59840;52.122;5.404;2023-07-13T02:05:32;101472.22;;;15.21;90.23
71974;BME280;59840;52.122;5.404;2023-07-13T02:08:02;101477.78;;;15.19;90.33
71974;BME280;59840;52.122;5.404;2023-07-13T02:10:31;101477.25;;;15.17;90.38
71974;BME280;59840;52.122;5.404;2023-07-13T02:12:58;101483.38;;;15.23;90.95
71974;BME280;59840;52.122;5.404;2023-07-13T02:15:25;101488.97;;;15.21;90.63
71974;BME280;59840;52.122;5.404;2023-07-13T02:17:52;101488.94;;;15.26;90.83
71974;BME280;59840;52.122;5.404;2023-07-13T02:20:21;101486.28;;;15.26;90.60
71974;BME280;59840;52.122;5.404;2023-07-13T02:22:48;101489.22;;;15.25;90.42
71974;BME280;59840;52.122;5.404;2023-07-13T02:25:17;101477.75;;;15.14;90.72
71974;BME280;59840;52.122;5.404;2023-07-13T02:27:47;101485.69;;;15.09;91.12
71974;BME280;59840;52.122;5.404;2023-07-13T02:30:14;101488.88;;;15.06;90.85
71974;BME280;59840;52.122;5.404;2023-07-13T02:32:46;101490.22;;;15.08;91.92
71974;BME280;59840;52.122;5.404;2023-07-13T02:35:13;101490.47;;;15.07;91.71
71974;BME280;59840;52.122;5.404;2023-07-13T02:37:43;101484.56;;;15.00;91.01
71974;BME280;59840;52.122;5.404;2023-07-13T02:40:10;101489.06;;;14.89;91.96
71974;BME280;59840;52.122;5.404;2023-07-13T02:42:37;101494.09;;;14.91;92.01
71974;BME280;59840;52.122;5.404;2023-07-13T02:45:06;101492.50;;;14.90;92.07
71974;BME280;59840;52.122;5.404;2023-07-13T02:47:33;101487.69;;;14.82;92.49
71974;BME280;59840;52.122;5.404;2023-07-13T02:50:05;101487.88;;;14.75;92.86
71974;BME280;59840;52.122;5.404;2023-07-13T02:52:38;101491.34;;;14.75;93.14
71974;BME280;59840;52.122;5.404;2023-07-13T02:55:05;101484.47;;;14.80;92.96
71974;BME280;59840;52.122;5.404;2023-07-13T02:57:34;101486.06;;;14.81;93.78
71974;BME280;59840;52.122;5.404;2023-07-13T03:00:03;101496.13;;;14.73;93.54
71974;BME280;59840;52.122;5.404;2023-07-13T03:02:37;101492.41;;;14.74;93.95
71974;BME280;59840;52.122;5.404;2023-07-13T03:05:05;101492.41;;;14.74;94.04
71974;BME280;59840;52.122;5.404;2023-07-13T03:07:32;101499.31;;;14.75;94.23
71974;BME280;59840;52.122;5.404;2023-07-13T03:10:02;101491.34;;;14.75;94.55
71974;BME280;59840;52.122;5.404;2023-07-13T03:12:28;101504.41;;;14.82;94.34
71974;BME280;59840;52.122;5.404;2023-07-13T03:14:55;101508.94;;;14.82;94.39
71974;BME280;59840;52.122;5.404;2023-07-13T03:17:25;101504.63;;;14.75;94.26
71974;BME280;59840;52.122;5.404;2023-07-13T03:19:55;101505.16;;;14.72;94.42
71974;BME280;59840;52.122;5.404;2023-07-13T03:22:24;101499.53;;;14.69;94.26
71974;BME280;59840;52.122;5.404;2023-07-13T03:24:51;101497.13;;;14.67;94.11
71974;BME280;59840;52.122;5.404;2023-07-13T03:27:20;101500.03;;;14.66;94.69
71974;BME280;59840;52.122;5.404;2023-07-13T03:29:50;101504.56;;;14.65;95.17
71974;BME280;59840;52.122;5.404;2023-07-13T03:32:16;101510.66;;;14.66;94.69
71974;BME280;59840;52.122;5.404;2023-07-13T03:34:46;101520.50;;;14.65;94.99
71974;BME280;59840;52.122;5.404;2023-07-13T03:37:12;101509.06;;;14.65;95.30
71974;BME280;59840;52.122;5.404;2023-07-13T03:39:39;101517.03;;;14.65;95.32
71974;BME280;59840;52.122;5.404;2023-07-13T03:42:06;101516.78;;;14.66;95.65
71974;BME280;59840;52.122;5.404;2023-07-13T03:44:35;101529.50;;;14.64;95.53
71974;BME280;59840;52.122;5.404;2023-07-13T03:47:04;101528.22;;;14.67;95.57
71974;BME280;59840;52.122;5.404;2023-07-13T03:49:32;101528.22;;;14.67;95.86
71974;BME280;59840;52.122;5.404;2023-07-13T03:51:59;101529.00;;;14.67;95.71
71974;BME280;59840;52.122;5.404;2023-07-13T03:54:28;101529.50;;;14.64;96.12
71974;BME280;59840;52.122;5.404;2023-07-13T03:56:58;101536.97;;;14.67;96.67
71974;BME280;59840;52.122;5.404;2023-07-13T03:59:25;101540.69;;;14.66;96.20
71974;BME280;59840;52.122;5.404;2023-07-13T04:01:54;101540.63;;;14.61;97.08
71974;BME280;59840;52.122;5.404;2023-07-13T04:04:23;101540.63;;;14.61;97.52
71974;BME280;59840;52.122;5.404;2023-07-13T04:06:50;101539.63;;;14.67;97.13
71974;BME280;59840;52.122;5.404;2023-07-13T04:09:19;101541.78;;;14.70;97.08
71974;BME280;59840;52.122;5.404;2023-07-13T04:11:46;101554.31;;;14.75;97.05
71974;BME280;59840;52.122;5.404;2023-07-13T04:14:12;101542.91;;;14.80;96.77
71974;BME280;59840;52.122;5.404;2023-07-13T04:16:39;101554.66;;;14.84;96.79
71974;BME280;59840;52.122;5.404;2023-07-13T04:19:06;101547.47;;;14.84;96.50
71974;BME280;59840;52.122;5.404;2023-07-13T04:21:36;101548.81;;;14.87;97.40
71974;BME280;59840;52.122;5.404;2023-07-13T04:24:03;101547.50;;;14.89;97.47
71974;BME280;59840;52.122;5.404;2023-07-13T04:26:30;101551.47;;;14.87;97.60
71974;BME280;59840;52.122;5.404;2023-07-13T04:28:57;101563.16;;;14.86;97.42
71974;BME280;59840;52.122;5.404;2023-07-13T04:31:24;101566.88;;;14.85;98.23
71974;BME280;59840;52.122;5.404;2023-07-13T04:33:51;101565.31;;;14.94;98.38
71974;BME280;59840;52.122;5.404;2023-07-13T04:36:20;101562.69;;;14.99;98.82
71974;BME280;59840;52.122;5.404;2023-07-13T04:38:49;101565.16;;;15.05;99.23
71974;BME280;59840;52.122;5.404;2023-07-13T04:41:16;101563.06;;;15.13;98.60
71974;BME280;59840;52.122;5.404;2023-07-13T04:43:46;101562.06;;;15.19;98.67
71974;BME280;59840;52.122;5.404;2023-07-13T04:46:14;101556.22;;;15.22;99.01
71974;BME280;59840;52.122;5.404;2023-07-13T04:48:46;101560.47;;;15.28;98.85
71974;BME280;59840;52.122;5.404;2023-07-13T04:51:13;101561.56;;;15.32;98.26
71974;BME280;59840;52.122;5.404;2023-07-13T04:53:40;101563.72;;;15.35;98.98
71974;BME280;59840;52.122;5.404;2023-07-13T04:56:09;101565.88;;;15.38;98.71
71974;BME280;59840;52.122;5.404;2023-07-13T04:58:37;101563.25;;;15.43;98.58
71974;BME280;59840;52.122;5.404;2023-07-13T05:01:05;101558.19;;;15.47;98.52
71974;BME280;59840;52.122;5.404;2023-07-13T05:03:33;101564.59;;;15.51;98.48
71974;BME280;59840;52.122;5.404;2023-07-13T05:06:04;101557.16;;;15.53;98.36
71974;BME280;59840;52.122;5.404;2023-07-13T05:08:31;101567.28;;;15.56;98.20
71974;BME280;59840;52.122;5.404;2023-07-13T05:11:03;101573.19;;;15.63;98.35
71974;BME280;59840;52.122;5.404;2023-07-13T05:13:30;101576.66;;;15.68;98.25
71974;BME280;59840;52.122;5.404;2023-07-13T05:16:04;101563.63;;;15.67;98.17
71974;BME280;59840;52.122;5.404;2023-07-13T05:18:32;101569.50;;;15.69;98.49
71974;BME280;59840;52.122;5.404;2023-07-13T05:21:04;101568.72;;;15.73;98.24
71974;BME280;59840;52.122;5.404;2023-07-13T05:23:33;101573.50;;;15.77;98.18
71974;BME280;59840;52.122;5.404;2023-07-13T05:26:01;101576.44;;;15.75;98.37
71974;BME280;59840;52.122;5.404;2023-07-13T05:28:30;101569.00;;;15.77;98.63
71974;BME280;59840;52.122;5.404;2023-07-13T05:31:02;101578.59;;;15.78;98.55
71974;BME280;59840;52.122;5.404;2023-07-13T05:33:32;101577.25;;;15.81;98.27
71974;BME280;59840;52.122;5.404;2023-07-13T05:36:01;101586.31;;;15.85;98.63
71974;BME280;59840;52.122;5.404;2023-07-13T05:38:30;101581.81;;;15.90;98.67
71974;BME280;59840;52.122;5.404;2023-07-13T05:40:57;101590.59;;;15.91;99.08
71974;BME280;59840;52.122;5.404;2023-07-13T05:43:24;101589.81;;;15.95;98.62
71974;BME280;59840;52.122;5.404;2023-07-13T05:45:56;101588.47;;;15.98;98.72
71974;BME280;59840;52.122;5.404;2023-07-13T05:48:26;101600.47;;;16.00;98.89
71974;BME280;59840;52.122;5.404;2023-07-13T05:50:53;101602.34;;;16.05;98.86
71974;BME280;59840;52.122;5.404;2023-07-13T05:53:21;101608.22;;;16.07;98.71
71974;BME280;59840;52.122;5.404;2023-07-13T05:55:55;101606.91;;;16.09;98.84
71974;BME280;59840;52.122;5.404;2023-07-13T05:58:24;101608.78;;;16.14;99.16
71974;BME280;59840;52.122;5.404;2023-07-13T06:01:06;101620.25;;;16.20;99.06
71974;BME280;59840;52.122;5.404;2023-07-13T06:03:33;101617.84;;;16.23;98.75
71974;BME280;59840;52.122;5.404;2023-07-13T06:06:00;101617.59;;;16.25;98.77
71974;BME280;59840;52.122;5.404;2023-07-13T06:08:28;101618.13;;;16.27;99.17
71974;BME280;59840;52.122;5.404;2023-07-13T06:11:02;101622.66;;;16.31;98.89
71974;BME280;59840;52.122;5.404;2023-07-13T06:13:32;101631.44;;;16.37;98.68
71974;BME280;59840;52.122;5.404;2023-07-13T06:16:00;101640.78;;;16.39;98.76
71974;BME280;59840;52.122;5.404;2023-07-13T06:18:40;101642.13;;;16.47;98.98
71974;BME280;59840;52.122;5.404;2023-07-13T06:21:13;101636.03;;;16.57;98.79
71974;BME280;59840;52.122;5.404;2023-07-13T06:23:41;101635.75;;;16.63;98.23
71974;BME280;59840;52.122;5.404;2023-07-13T06:26:08;101638.19;;;16.65;97.75
71974;BME280;59840;52.122;5.404;2023-07-13T06:28:38;101643.78;;;16.68;97.61
71974;BME280;59840;52.122;5.404;2023-07-13T06:31:09;101652.59;;;16.74;98.01
71974;BME280;59840;52.122;5.404;2023-07-13T06:33:38;101647.81;;;16.81;97.77
71974;BME280;59840;52.122;5.404;2023-07-13T06:36:08;101652.88;;;16.93;97.49
71974;BME280;59840;52.122;5.404;2023-07-13T06:38:38;101653.69;;;16.93;97.24
71974;BME280;59840;52.122;5.404;2023-07-13T06:41:07;101657.16;;;16.94;96.81
71974;BME280;59840;52.122;5.404;2023-07-13T06:43:37;101651.03;;;16.93;97.05
71974;BME280;59840;52.122;5.404;2023-07-13T06:46:06;101655.81;;;16.96;96.56
71974;BME280;59840;52.122;5.404;2023-07-13T06:48:34;101650.50;;;16.96;96.86
71974;BME280;59840;52.122;5.404;2023-07-13T06:51:03;101643.53;;;17.00;96.52
71974;BME280;59840;52.122;5.404;2023-07-13T06:53:30;101653.41;;;17.05;96.64
71974;BME280;59840;52.122;5.404;2023-07-13T06:55:57;101651.25;;;17.12;96.23
71974;BME280;59840;52.122;5.404;2023-07-13T06:58:27;101648.88;;;17.16;95.96
71974;BME280;59840;52.122;5.404;2023-07-13T07:00:56;101648.31;;;17.24;96.24
71974;BME280;59840;52.122;5.404;2023-07-13T07:03:22;101653.88;;;17.42;96.07
71974;BME280;59840;52.122;5.404;2023-07-13T07:05:50;101660.28;;;17.67;95.51
71974;BME280;59840;52.122;5.404;2023-07-13T07:08:16;101672.53;;;17.68;93.76
71974;BME280;59840;52.122;5.404;2023-07-13T07:10:43;101669.59;;;17.59;93.27
71974;BME280;59840;52.122;5.404;2023-07-13T07:13:10;101668.81;;;17.59;94.07
71974;BME280;59840;52.122;5.404;2023-07-13T07:15:36;101676.31;;;17.67;93.95
71974;BME280;59840;52.122;5.404;2023-07-13T07:18:03;101674.38;;;17.72;94.14
71974;BME280;59840;52.122;5.404;2023-07-13T07:20:30;101676.00;;;17.73;93.60
71974;BME280;59840;52.122;5.404;2023-07-13T07:22:59;101674.66;;;17.76;93.14
71974;BME280;59840;52.122;5.404;2023-07-13T07:25:26;101675.19;;;17.73;93.58
71974;BME280;59840;52.122;5.404;2023-07-13T07:27:53;101683.50;;;17.66;94.73
71974;BME280;59840;52.122;5.404;2023-07-13T07:30:22;101689.09;;;17.55;95.36
71974;BME280;59840;52.122;5.404;2023-07-13T07:32:52;101682.16;;;17.43;96.84
71974;BME280;59840;52.122;5.404;2023-07-13T07:35:26;101694.44;;;17.39;98.09
71974;BME280;59840;52.122;5.404;2023-07-13T07:37:52;101689.63;;;17.36;98.76
71974;BME280;59840;52.122;5.404;2023-07-13T07:40:19;101683.78;;;17.34;100.00
71974;BME280;59840;52.122;5.404;2023-07-13T07:42:48;101681.91;;;17.35;100.00
71974;BME280;59840;52.122;5.404;2023-07-13T07:45:15;101679.00;;;17.31;100.00
71974;BME280;59840;52.122;5.404;2023-07-13T07:47:42;101678.16;;;17.36;100.00
71974;BME280;59840;52.122;5.404;2023-07-13T07:50:09;101668.28;;;17.41;100.00
71974;BME280;59840;52.122;5.404;2023-07-13T07:52:36;101669.88;;;17.48;100.00
71974;BME280;59840;52.122;5.404;2023-07-13T07:55:25;101675.22;;;17.53;100.00
71974;BME280;59840;52.122;5.404;2023-07-13T07:58:15;101665.09;;;17.50;100.00
71974;BME280;59840;52.122;5.404;2023-07-13T08:00:59;101661.34;;;17.51;100.00
71974;BME280;59840;52.122;5.404;2023-07-13T08:03:36;101660.28;;;17.47;100.00
71974;BME280;59840;52.122;5.404;2023-07-13T08:06:41;101662.94;;;17.52;100.00
71974;BME280;59840;52.122;5.404;2023-07-13T08:17:53;101671.81;;;18.17;98.67
71974;BME280;59840;52.122;5.404;2023-07-13T08:20:53;101671.56;;;18.18;98.23
71974;BME280;59840;52.122;5.404;2023-07-13T08:23:47;101669.97;;;18.12;97.35
71974;BME280;59840;52.122;5.404;2023-07-13T08:26:27;101678.25;;;18.11;98.92
71974;BME280;59840;52.122;5.404;2023-07-13T08:29:01;101677.19;;;18.12;96.63
71974;BME280;59840;52.122;5.404;2023-07-13T08:32:14;101673.94;;;18.25;96.35
71974;BME280;59840;52.122;5.404;2023-07-13T08:35:48;101664.69;;;18.51;95.44
71974;BME280;59840;52.122;5.404;2023-07-13T08:38:36;101660.91;;;18.62;91.60
71974;BME280;59840;52.122;5.404;2023-07-13T08:54:44;101702.72;;;18.87;83.90
71974;BME280;59840;52.122;5.404;2023-07-13T08:57:24;101695.09;;;18.70;83.00
71974;BME280;59840;52.122;5.404;2023-07-13T08:59:56;101701.88;;;18.42;83.33
71974;BME280;59840;52.122;5.404;2023-07-13T09:02:26;101707.88;;;18.24;84.62
71974;BME280;59840;52.122;5.404;2023-07-13T09:05:00;101708.19;;;18.07;84.90
71974;BME280;59840;52.122;5.404;2023-07-13T09:07:45;101711.44;;;17.99;85.84
71974;BME280;59840;52.122;5.404;2023-07-13T09:10:21;101709.31;;;17.91;85.79
71974;BME280;59840;52.122;5.404;2023-07-13T09:12:57;101712.53;;;17.93;86.96
71974;BME280;59840;52.122;5.404;2023-07-13T09:15:39;101712.50;;;17.98;88.29
71974;BME280;59840;52.122;5.404;2023-07-13T09:18:32;101700.75;;;17.99;89.26
71974;BME280;59840;52.122;5.404;2023-07-13T09:21:15;101700.75;;;17.99;90.31
71974;BME280;59840;52.122;5.404;2023-07-13T09:23:43;101697.28;;;17.99;89.97
71974;BME280;59840;52.122;5.404;2023-07-13T09:26:17;101696.50;;;17.98;91.08
71974;BME280;59840;52.122;5.404;2023-07-13T09:28:47;101693.78;;;18.03;89.82
71974;BME280;59840;52.122;5.404;2023-07-13T09:31:17;101699.88;;;18.19;90.93
71974;BME280;59840;52.122;5.404;2023-07-13T09:33:45;101702.22;;;18.31;89.21
71974;BME280;59840;52.122;5.404;2023-07-13T09:38:41;101688.59;;;18.77;87.11
71974;BME280;59840;52.122;5.404;2023-07-13T09:41:19;101692.22;;;18.96;86.08
71974;BME280;59840;52.122;5.404;2023-07-13T09:46:36;101689.56;;;18.91;81.07
71974;BME280;59840;52.122;5.404;2023-07-13T09:49:02;101696.66;;;18.71;82.58
71974;BME280;59840;52.122;5.404;2023-07-13T09:51:29;101711.19;;;18.50;82.90
71974;BME280;59840;52.122;5.404;2023-07-13T09:53:56;101727.88;;;18.32;86.13
71974;BME280;59840;52.122;5.404;2023-07-13T09:56:26;101757.06;;;18.08;91.52
71974;BME280;59840;52.122;5.404;2023-07-13T09:58:53;101741.66;;;17.54;95.90
71974;BME280;59840;52.122;5.404;2023-07-13T10:01:37;101747.81;;;17.29;97.90
71974;BME280;59840;52.122;5.404;2023-07-13T10:04:12;101737.13;;;17.09;98.48
71974;BME280;59840;52.122;5.404;2023-07-13T10:06:40;101744.06;;;17.10;99.48
71974;BME280;59840;52.122;5.404;2023-07-13T10:09:13;101742.47;;;17.34;100.00
71974;BME280;59840;52.122;5.404;2023-07-13T10:11:41;101739.53;;;17.46;98.87
71974;BME280;59840;52.122;5.404;2023-07-13T10:14:21;101735.78;;;17.62;100.00
71974;BME280;59840;52.122;5.404;2023-07-13T10:16:58;101740.84;;;17.79;100.00
71974;BME280;59840;52.122;5.404;2023-07-13T10:19:34;101751.53;;;17.84;100.00
71974;BME280;59840;52.122;5.404;2023-07-13T10:24:37;101750.16;;;17.97;99.95
71974;BME280;59840;52.122;5.404;2023-07-13T10:30:19;101742.34;;;18.16;100.00
71974;BME280;59840;52.122;5.404;2023-07-13T10:32:47;101739.03;;;18.39;100.00
71974;BME280;59840;52.122;5.404;2023-07-13T10:35:15;101736.31;;;18.54;100.00
71974;BME280;59840;52.122;5.404;2023-07-13T10:38:05;101740.56;;;18.65;99.57
71974;BME280;59840;52.122;5.404;2023-07-13T10:40:40;101750.19;;;18.56;99.43
71974;BME280;59840;52.122;5.404;2023-07-13T10:43:18;101748.06;;;18.53;98.95
71974;BME280;59840;52.122;5.404;2023-07-13T10:45:47;101755.84;;;18.50;98.57
71974;BME280;59840;52.122;5.404;2023-07-13T10:48:18;101748.63;;;18.45;96.11
71974;BME280;59840;52.122;5.404;2023-07-13T10:50:48;101749.72;;;18.44;96.58
71974;BME280;59840;52.122;5.404;2023-07-13T10:53:42;101748.03;;;18.58;95.96
71974;BME280;59840;52.122;5.404;2023-07-13T10:56:29;101753.56;;;18.77;95.64
71974;BME280;59840;52.122;5.404;2023-07-13T10:59:11;101751.09;;;18.91;95.76
71974;BME280;59840;52.122;5.404;2023-07-13T11:01:50;101745.41;;;19.02;95.03
71974;BME280;59840;52.122;5.404;2023-07-13T11:04:19;101751.22;;;19.09;89.76
71974;BME280;59840;52.122;5.404;2023-07-13T11:06:48;101753.53;;;19.21;90.99
71974;BME280;59840;52.122;5.404;2023-07-13T11:09:40;101764.19;;;19.31;85.61
71974;BME280;59840;52.122;5.404;2023-07-13T11:12:28;101764.41;;;19.35;84.62
71974;BME280;59840;52.122;5.404;2023-07-13T11:17:35;101771.50;;;19.50;82.19
71974;BME280;59840;52.122;5.404;2023-07-13T11:22:50;101773.75;;;19.37;83.28
71974;BME280;59840;52.122;5.404;2023-07-13T11:28:11;101766.28;;;19.34;81.16
71974;BME280;59840;52.122;5.404;2023-07-13T11:36:18;101757.00;;;19.22;85.45
71974;BME280;59840;52.122;5.404;2023-07-13T11:39:03;101761.13;;;19.09;83.92
71974;BME280;59840;52.122;5.404;2023-07-13T11:41:43;101761.22;;;18.99;84.76
71974;BME280;59840;52.122;5.404;2023-07-13T11:44:17;101787.06;;;19.08;85.66
71974;BME280;59840;52.122;5.404;2023-07-13T11:46:58;101787.84;;;19.14;89.46
71974;BME280;59840;52.122;5.404;2023-07-13T11:49:31;101788.50;;;18.96;87.77
71974;BME280;59840;52.122;5.404;2023-07-13T11:52:02;101790.66;;;18.94;89.75
71974;BME280;59840;52.122;5.404;2023-07-13T11:54:32;101782.91;;;18.92;86.84
71974;BME280;59840;52.122;5.404;2023-07-13T11:59:47;101786.97;;;18.80;87.27
71974;BME280;59840;52.122;5.404;2023-07-13T12:02:20;101794.47;;;18.78;88.44
71974;BME280;59840;52.122;5.404;2023-07-13T12:04:52;101798.25;;;18.71;91.19
71974;BME280;59840;52.122;5.404;2023-07-13T12:07:19;101791.06;;;18.67;90.91
71974;BME280;59840;52.122;5.404;2023-07-13T12:09:47;101789.63;;;18.85;93.19
71974;BME280;59840;52.122;5.404;2023-07-13T12:12:21;101797.31;;;18.96;93.29
71974;BME280;59840;52.122;5.404;2023-07-13T12:14:52;101785.00;;;19.00;93.91
71974;BME280;59840;52.122;5.404;2023-07-13T12:17:22;101786.63;;;18.96;93.73
71974;BME280;59840;52.122;5.404;2023-07-13T12:19:51;101785.56;;;18.97;92.85
71974;BME280;59840;52.122;5.404;2023-07-13T12:22:20;101789.56;;;19.00;95.93
71974;BME280;59840;52.122;5.404;2023-07-13T12:24:48;101781.53;;;19.00;93.80
71974;BME280;59840;52.122;5.404;2023-07-13T12:27:27;101794.13;;;18.94;91.91
71974;BME280;59840;52.122;5.404;2023-07-13T12:30:04;101789.59;;;18.95;92.68
71974;BME280;59840;52.122;5.404;2023-07-13T12:32:32;101787.41;;;19.02;91.67
71974;BME280;59840;52.122;5.404;2023-07-13T12:35:17;101792.13;;;19.10;91.43
71974;BME280;59840;52.122;5.404;2023-07-13T12:37:48;101788.25;;;19.31;92.14
71974;BME280;59840;52.122;5.404;2023-07-13T12:40:17;101785.13;;;19.58;90.48
71974;BME280;59840;52.122;5.404;2023-07-13T12:42:53;101786.50;;;19.80;89.98
71974;BME280;59840;52.122;5.404;2023-07-13T12:45:23;101787.25;;;19.85;84.98
71974;BME280;59840;52.122;5.404;2023-07-13T12:50:41;101785.91;;;19.88;83.97
71974;BME280;59840;52.122;5.404;2023-07-13T12:53:14;101790.94;;;19.65;81.39
71974;BME280;59840;52.122;5.404;2023-07-13T12:55:53;101788.28;;;19.65;82.80
71974;BME280;59840;52.122;5.404;2023-07-13T12:58:29;101785.16;;;19.82;83.10
71974;BME280;59840;52.122;5.404;2023-07-13T13:00:58;101782.56;;;20.01;81.93
71974;BME280;59840;52.122;5.404;2023-07-13T13:06:34;101786.00;;;20.06;80.01
71974;BME280;59840;52.122;5.404;2023-07-13T13:08:56;101785.63;;;19.89;81.35
71974;BME280;59840;52.122;5.404;2023-07-13T13:11:26;101789.47;;;19.78;82.80
71974;BME280;59840;52.122;5.404;2023-07-13T13:13:53;101789.47;;;19.78;81.48
71974;BME280;59840;52.122;5.404;2023-07-13T13:19:20;101780.72;;;19.96;76.39
71974;BME280;59840;52.122;5.404;2023-07-13T13:21:48;101790.13;;;19.94;78.68
71974;BME280;59840;52.122;5.404;2023-07-13T13:24:20;101785.84;;;19.93;77.68
71974;BME280;59840;52.122;5.404;2023-07-13T13:26:48;101794.69;;;19.93;76.09
71974;BME280;59840;52.122;5.404;2023-07-13T13:29:18;101793.09;;;19.92;80.01
71974;BME280;59840;52.122;5.404;2023-07-13T13:31:46;101795.78;;;19.92;74.19
71974;BME280;59840;52.122;5.404;2023-07-13T13:34:15;101797.41;;;19.88;74.62
71974;BME280;59840;52.122;5.404;2023-07-13T13:36:42;101790.50;;;19.82;74.63
71974;BME280;59840;52.122;5.404;2023-07-13T13:39:43;101801.09;;;19.68;74.51
71974;BME280;59840;52.122;5.404;2023-07-13T13:42:20;101797.69;;;19.58;76.82
71974;BME280;59840;52.122;5.404;2023-07-13T13:44:48;101797.47;;;19.54;76.87
71974;BME280;59840;52.122;5.404;2023-07-13T13:47:29;101797.09;;;19.66;76.93
71974;BME280;59840;52.122;5.404;2023-07-13T13:49:57;101805.53;;;19.78;73.28
71974;BME280;59840;52.122;5.404;2023-07-13T13:52:24;101796.94;;;19.81;73.38
71974;BME280;59840;52.122;5.404;2023-07-13T13:54:51;101794.78;;;19.83;76.13
71974;BME280;59840;52.122;5.404;2023-07-13T13:57:23;101792.44;;;19.77;72.63
71974;BME280;59840;52.122;5.404;2023-07-13T13:59:51;101798.03;;;19.80;73.44
71974;BME280;59840;52.122;5.404;2023-07-13T14:02:27;101792.81;;;19.94;73.68
71974;BME280;59840;52.122;5.404;2023-07-13T14:05:00;101791.41;;;20.01;73.55
71974;BME280;59840;52.122;5.404;2023-07-13T14:07:28;101795.09;;;20.05;73.42
71974;BME280;59840;52.122;5.404;2023-07-13T14:09:58;101796.72;;;20.06;71.86
71974;BME280;59840;52.122;5.404;2023-07-13T14:12:26;101799.91;;;20.08;71.28